createdAt,value
2023-04-09T00:02:10.979Z,65.10
2023-04-09T00:04:37.647Z,65.44
2023-04-09T00:07:04.201Z,65.64
2023-04-09T00:09:30.996Z,65.98
2023-04-09T00:11:58.285Z,66.26
2023-04-09T00:14:24.971Z,66.54
2023-04-09T00:16:51.512Z,66.89
2023-04-09T00:19:18.025Z,67.16
2023-04-09T00:21:44.574Z,67.25
2023-04-09T00:24:11.275Z,67.51
2023-04-09T00:26:37.860Z,67.94
2023-04-09T00:29:04.398Z,68.14
2023-04-09T00:31:30.994Z,68.16
2023-04-09T00:33:57.550Z,68.51
2023-04-09T00:36:25.922Z,68.37
2023-04-09T00:38:54.197Z,69.05
2023-04-09T00:41:20.922Z,69.19
2023-04-09T00:43:47.449Z,69.17
2023-04-09T00:46:14.609Z,69.38
2023-04-09T00:48:41.839Z,69.66
2023-04-09T00:51:08.960Z,70.20
2023-04-09T00:53:35.611Z,70.08
2023-04-09T00:56:02.985Z,70.59
2023-04-09T00:58:29.722Z,70.31
2023-04-09T01:00:56.442Z,70.49
2023-04-09T01:03:23.529Z,70.58
2023-04-09T01:06:03.412Z,70.72
2023-04-09T01:08:32.971Z,71.09
2023-04-09T01:11:10.043Z,71.00
2023-04-09T01:13:53.450Z,71.52
2023-04-09T01:16:24.279Z,71.69
2023-04-09T01:18:56.551Z,71.73
2023-04-09T01:21:27.559Z,71.73
2023-04-09T01:24:06.945Z,71.89
2023-04-09T01:27:01.576Z,71.87
2023-04-09T01:29:33.429Z,72.31
2023-04-09T01:32:03.101Z,72.53
2023-04-09T01:34:31.061Z,72.17
2023-04-09T01:37:00.792Z,72.62
2023-04-09T01:39:27.648Z,72.21
2023-04-09T01:41:56.240Z,72.29
2023-04-09T01:44:24.559Z,72.46
2023-04-09T01:46:51.879Z,72.30
2023-04-09T01:49:18.831Z,73.06
2023-04-09T01:51:46.000Z,72.85
2023-04-09T01:54:12.588Z,73.15
2023-04-09T01:56:47.858Z,73.09
2023-04-09T01:59:14.988Z,73.26
2023-04-09T02:01:47.072Z,73.36
2023-04-09T02:04:19.256Z,73.23
2023-04-09T02:06:45.668Z,72.96
2023-04-09T02:09:13.341Z,73.10
2023-04-09T02:11:42.243Z,73.51
2023-04-09T02:14:11.301Z,73.64
2023-04-09T02:16:39.927Z,73.78
2023-04-09T02:19:06.519Z,73.95
2023-04-09T02:21:33.274Z,74.10
2023-04-09T02:23:59.832Z,74.01
2023-04-09T02:26:26.461Z,74.23
2023-04-09T02:28:53.270Z,74.16
2023-04-09T02:31:20.108Z,73.83
2023-04-09T02:33:46.683Z,74.09
2023-04-09T02:36:13.848Z,73.74
2023-04-09T02:38:42.047Z,74.06
2023-04-09T02:41:09.307Z,73.76
2023-04-09T02:43:36.085Z,73.72
2023-04-09T02:46:02.872Z,73.69
2023-04-09T02:48:29.506Z,73.72
2023-04-09T02:50:57.439Z,73.53
2023-04-09T02:53:24.078Z,73.26
2023-04-09T02:55:50.610Z,73.92
2023-04-09T02:58:17.155Z,73.30
2023-04-09T03:00:43.667Z,73.54
2023-04-09T03:03:10.702Z,73.18
2023-04-09T03:05:38.063Z,73.37
2023-04-09T03:08:04.742Z,73.36
2023-04-09T03:10:31.424Z,73.09
2023-04-09T03:12:57.914Z,73.32
2023-04-09T03:15:24.422Z,73.30
2023-04-09T03:17:51.220Z,73.77
2023-04-09T03:20:17.790Z,73.52
2023-04-09T03:22:44.340Z,73.73
2023-04-09T03:25:10.975Z,73.73
2023-04-09T03:27:37.549Z,73.82
2023-04-09T03:30:04.504Z,73.76
2023-04-09T03:32:31.254Z,73.69
2023-04-09T03:34:57.822Z,73.77
2023-04-09T03:37:24.320Z,73.71
2023-04-09T03:39:50.931Z,73.75
2023-04-09T03:42:17.484Z,73.71
2023-04-09T03:44:43.987Z,73.69
2023-04-09T03:47:10.657Z,73.75
2023-04-09T03:49:37.340Z,73.87
2023-04-09T03:52:03.975Z,73.82
2023-04-09T03:54:30.991Z,74.05
2023-04-09T03:56:57.618Z,74.35
2023-04-09T03:59:24.753Z,74.35
2023-04-09T04:01:51.783Z,74.61
2023-04-09T04:04:19.900Z,74.87
2023-04-09T04:06:47.738Z,74.96
2023-04-09T04:09:14.448Z,75.39
2023-04-09T04:11:40.986Z,75.37
2023-04-09T04:14:07.510Z,75.61
2023-04-09T04:16:34.093Z,75.29
2023-04-09T04:19:00.725Z,75.83
2023-04-09T04:21:27.303Z,76.11
2023-04-09T04:23:53.843Z,76.11
2023-04-09T04:26:20.427Z,76.20
2023-04-09T04:28:47.019Z,76.13
2023-04-09T04:31:13.651Z,76.40
2023-04-09T04:33:41.758Z,75.98
2023-04-09T04:36:10.444Z,76.30
2023-04-09T04:38:37.296Z,76.52
2023-04-09T04:41:04.036Z,76.20
2023-04-09T04:43:31.452Z,76.51
2023-04-09T04:45:58.165Z,76.51
2023-04-09T04:48:24.934Z,76.32
2023-04-09T04:50:57.032Z,76.79
2023-04-09T04:53:23.683Z,76.60
2023-04-09T04:55:50.545Z,77.24
2023-04-09T04:58:17.452Z,77.19
2023-04-09T05:00:44.235Z,76.93
2023-04-09T05:03:11.261Z,75.18
2023-04-09T05:05:37.827Z,73.88
2023-04-09T05:08:04.615Z,73.07
2023-04-09T05:10:31.270Z,71.62
2023-04-09T05:12:57.822Z,70.27
2023-04-09T05:16:10.409Z,69.86
2023-04-09T05:18:36.952Z,70.29
2023-04-09T05:21:03.544Z,70.90
2023-04-09T05:23:30.087Z,71.54
2023-04-09T05:25:56.615Z,71.75
2023-04-09T05:28:23.185Z,72.10
2023-04-09T05:30:49.792Z,72.73
2023-04-09T05:33:16.432Z,72.83
2023-04-09T05:35:43.013Z,72.77
2023-04-09T05:38:09.564Z,72.90
2023-04-09T05:40:36.428Z,73.01
2023-04-09T05:43:02.987Z,73.22
2023-04-09T05:45:29.553Z,73.19
2023-04-09T05:47:56.698Z,73.11
2023-04-09T05:50:23.696Z,73.31
2023-04-09T05:52:50.459Z,73.62
2023-04-09T05:55:17.107Z,73.75
2023-04-09T05:57:45.412Z,73.57
2023-04-09T06:00:13.465Z,74.06
2023-04-09T06:02:40.074Z,74.08
2023-04-09T06:05:06.884Z,73.84
2023-04-09T06:07:33.596Z,74.01
2023-04-09T06:10:00.328Z,74.08
2023-04-09T06:12:26.829Z,74.01
2023-04-09T06:14:53.353Z,73.70
2023-04-09T06:17:19.945Z,73.90
2023-04-09T06:19:46.550Z,73.48
2023-04-09T06:22:13.124Z,73.62
2023-04-09T06:24:39.679Z,73.50
2023-04-09T06:27:06.695Z,73.28
2023-04-09T06:29:33.301Z,73.10
2023-04-09T06:31:59.796Z,73.14
2023-04-09T06:34:26.308Z,72.56
2023-04-09T06:36:52.945Z,72.78
2023-04-09T06:39:19.497Z,72.23
2023-04-09T06:41:46.599Z,72.33
2023-04-09T06:44:13.718Z,71.95
2023-04-09T06:46:40.660Z,71.90
2023-04-09T06:49:07.221Z,71.68
2023-04-09T06:51:33.833Z,71.31
2023-04-09T06:54:00.441Z,70.58
2023-04-09T06:56:27.046Z,70.09
2023-04-09T06:58:53.674Z,69.83
2023-04-09T07:01:20.539Z,69.30
2023-04-09T07:03:47.203Z,69.13
2023-04-09T07:06:13.824Z,68.37
2023-04-09T07:08:40.540Z,68.65
2023-04-09T07:11:07.266Z,68.18
2023-04-09T07:13:34.038Z,68.31
2023-04-09T07:16:00.680Z,68.16
2023-04-09T07:18:27.379Z,68.46
2023-04-09T07:20:53.927Z,67.87
2023-04-09T07:23:20.567Z,67.68
2023-04-09T07:25:47.328Z,67.74
2023-04-09T07:28:14.029Z,67.33
2023-04-09T07:30:41.220Z,66.81
2023-04-09T07:33:07.816Z,66.68
2023-04-09T07:35:34.837Z,66.82
2023-04-09T07:38:01.469Z,66.59
2023-04-09T07:40:28.203Z,66.26
2023-04-09T07:42:55.720Z,65.41
2023-04-09T07:45:22.259Z,65.69
2023-04-09T07:47:48.814Z,65.57
2023-04-09T07:50:15.949Z,64.87
2023-04-09T07:52:42.788Z,64.32
2023-04-09T07:55:09.495Z,64.85
2023-04-09T07:57:36.916Z,64.07
2023-04-09T08:00:04.377Z,63.85
2023-04-09T08:02:31.236Z,63.52
2023-04-09T08:04:58.303Z,63.70
2023-04-09T08:07:24.930Z,62.93
2023-04-09T08:09:51.428Z,63.17
2023-04-09T08:12:18.027Z,62.66
2023-04-09T08:14:44.587Z,62.68
2023-04-09T08:17:11.207Z,62.89
2023-04-09T08:19:39.773Z,61.65
2023-04-09T08:22:07.733Z,60.73
2023-04-09T08:24:34.825Z,61.42
2023-04-09T08:27:01.998Z,61.75
2023-04-09T08:29:28.559Z,61.63
2023-04-09T08:31:55.192Z,61.09
2023-04-09T08:34:22.200Z,61.29
2023-04-09T08:36:49.942Z,60.00
2023-04-09T08:39:20.850Z,60.09
2023-04-09T08:41:48.397Z,59.67
2023-04-09T08:44:14.993Z,59.26
2023-04-09T08:46:42.065Z,59.01
2023-04-09T08:49:10.883Z,58.71
2023-04-09T08:51:37.466Z,58.99
2023-04-09T08:54:05.056Z,58.96
2023-04-09T08:56:32.582Z,58.83
2023-04-09T08:58:59.344Z,58.22
2023-04-09T09:01:28.040Z,57.62
2023-04-09T09:03:59.090Z,57.73
2023-04-09T09:06:29.340Z,57.07
2023-04-09T09:09:05.494Z,55.86
2023-04-09T09:11:33.484Z,56.15
2023-04-09T09:14:10.832Z,56.54
2023-04-09T09:16:43.199Z,55.97
2023-04-09T09:19:31.126Z,55.78
2023-04-09T09:22:01.826Z,55.47
2023-04-09T09:24:28.630Z,54.41
2023-04-09T09:26:55.836Z,54.71
2023-04-09T09:29:22.572Z,53.83
2023-04-09T09:31:51.977Z,53.43
2023-04-09T09:34:21.115Z,52.46
2023-04-09T09:36:48.021Z,52.07
2023-04-09T09:39:17.424Z,52.35
2023-04-09T09:41:45.282Z,52.17
2023-04-09T09:44:13.421Z,52.06
2023-04-09T09:46:42.357Z,52.00
2023-04-09T09:49:09.605Z,51.32
2023-04-09T09:51:39.234Z,50.93
2023-04-09T09:54:07.825Z,49.71
2023-04-09T09:56:39.687Z,49.73
2023-04-09T09:59:23.636Z,49.88
2023-04-09T10:01:59.961Z,49.16
2023-04-09T10:04:29.793Z,48.49
2023-04-09T10:06:57.627Z,47.34
2023-04-09T10:09:28.132Z,46.89
2023-04-09T10:11:56.028Z,46.23
2023-04-09T10:14:23.193Z,46.93
2023-04-09T10:16:49.857Z,46.69
2023-04-09T10:19:17.130Z,46.13
2023-04-09T10:22:21.459Z,46.00
2023-04-09T10:24:48.385Z,46.67
2023-04-09T10:27:17.365Z,46.47
2023-04-09T10:29:49.059Z,46.57
2023-04-09T10:32:28.479Z,46.65
2023-04-09T10:35:01.686Z,45.46
2023-04-09T10:37:28.762Z,44.64
2023-04-09T10:39:56.582Z,44.68
2023-04-09T10:42:42.079Z,43.84
2023-04-09T10:45:16.821Z,43.57
2023-04-09T10:47:44.318Z,42.73
2023-04-09T10:50:24.103Z,42.89
2023-04-09T10:52:56.627Z,41.52
2023-04-09T10:55:39.125Z,41.67
2023-04-09T10:58:12.350Z,41.16
2023-04-09T11:00:41.826Z,40.93
2023-04-09T11:03:22.258Z,41.45
2023-04-09T11:05:52.639Z,41.27
2023-04-09T11:08:19.538Z,41.07
2023-04-09T11:10:49.775Z,41.08
2023-04-09T11:13:20.074Z,41.37
2023-04-09T11:15:46.742Z,41.05
2023-04-09T11:18:24.518Z,41.96
2023-04-09T11:20:55.367Z,41.77
2023-04-09T11:23:22.127Z,41.83
2023-04-09T11:25:51.148Z,41.56
2023-04-09T11:28:18.750Z,40.45
2023-04-09T11:30:46.945Z,41.49
2023-04-09T11:33:14.178Z,40.75
2023-04-09T11:35:40.982Z,40.34
2023-04-09T11:38:09.187Z,40.16
2023-04-09T11:40:36.405Z,39.45
2023-04-09T11:43:03.260Z,39.02
2023-04-09T11:45:31.720Z,39.52
2023-04-09T11:47:58.919Z,39.47
2023-04-09T11:50:25.844Z,39.36
2023-04-09T11:52:52.652Z,39.93
2023-04-09T11:55:26.933Z,39.64
2023-04-09T11:57:57.493Z,39.62
2023-04-09T12:00:25.112Z,40.02
2023-04-09T12:02:59.722Z,40.03
2023-04-09T12:05:30.636Z,39.26
2023-04-09T12:08:07.544Z,39.57
2023-04-09T12:10:38.119Z,39.82
2023-04-09T12:13:10.493Z,40.03
2023-04-09T12:15:41.003Z,40.61
2023-04-09T12:18:12.409Z,40.33
2023-04-09T12:20:40.017Z,39.70
2023-04-09T12:23:08.291Z,39.01
2023-04-09T12:25:39.251Z,37.71
2023-04-09T12:28:07.498Z,37.66
2023-04-09T12:30:35.424Z,37.72
2023-04-09T12:33:03.488Z,37.72
2023-04-09T12:35:30.426Z,36.58
2023-04-09T12:37:57.235Z,35.81
2023-04-09T12:40:23.757Z,36.04
2023-04-09T12:42:50.350Z,36.36
2023-04-09T12:45:18.950Z,36.69
2023-04-09T12:47:46.019Z,36.34
2023-04-09T12:50:15.023Z,36.12
2023-04-09T12:52:42.195Z,36.35
2023-04-09T12:55:09.288Z,35.49
2023-04-09T12:57:37.375Z,36.25
2023-04-09T13:00:05.931Z,36.39
2023-04-09T13:02:32.670Z,36.72
2023-04-09T13:04:59.405Z,35.99
2023-04-09T13:07:29.192Z,36.62
2023-04-09T13:09:56.807Z,35.94
2023-04-09T13:12:24.140Z,37.23
2023-04-09T13:14:53.673Z,36.69
2023-04-09T13:17:20.630Z,35.47
2023-04-09T13:19:47.384Z,35.65
2023-04-09T13:22:14.035Z,35.13
2023-04-09T13:24:40.798Z,34.51
2023-04-09T13:27:09.672Z,34.89
2023-04-09T13:29:36.658Z,34.58
2023-04-09T13:32:07.174Z,34.14
2023-04-09T13:34:35.124Z,34.18
2023-04-09T13:37:04.993Z,33.80
2023-04-09T13:39:31.530Z,33.59
2023-04-09T13:41:58.249Z,32.72
2023-04-09T13:44:25.799Z,32.67
2023-04-09T13:46:52.800Z,32.36
2023-04-09T13:49:19.458Z,32.44
2023-04-09T13:51:46.692Z,31.64
2023-04-09T13:54:13.457Z,31.39
2023-04-09T13:56:40.492Z,30.36
2023-04-09T13:59:07.199Z,29.96
2023-04-09T14:01:34.463Z,30.13
2023-04-09T14:04:01.387Z,29.00
2023-04-09T14:06:28.105Z,28.83
2023-04-09T14:08:55.907Z,28.13
2023-04-09T14:11:22.548Z,27.20
2023-04-09T14:13:49.146Z,27.66
2023-04-09T14:16:15.830Z,27.19
2023-04-09T14:18:42.441Z,26.36
2023-04-09T14:21:10.325Z,25.66
2023-04-09T14:23:39.701Z,25.14
2023-04-09T14:26:07.028Z,24.69
2023-04-09T14:28:33.763Z,24.83
2023-04-09T14:31:00.622Z,24.18
2023-04-09T14:33:27.636Z,24.04
2023-04-09T14:35:54.404Z,23.54
2023-04-09T14:38:20.951Z,23.43
2023-04-09T14:40:47.539Z,23.78
2023-04-09T14:43:14.135Z,23.17
2023-04-09T14:45:40.671Z,22.23
2023-04-09T14:48:07.283Z,22.22
2023-04-09T14:50:34.295Z,21.85
2023-04-09T14:53:01.476Z,21.38
2023-04-09T14:55:28.340Z,21.54
2023-04-09T14:57:55.000Z,20.99
2023-04-09T15:00:22.701Z,20.95
2023-04-09T15:02:49.502Z,21.74
2023-04-09T15:05:16.231Z,21.01
2023-04-09T15:07:43.816Z,21.48
2023-04-09T15:10:11.025Z,21.56
2023-04-09T15:12:37.611Z,21.57
2023-04-09T15:15:08.850Z,21.44
2023-04-09T15:17:35.799Z,20.92
2023-04-09T15:20:02.422Z,20.50
2023-04-09T15:22:29.011Z,20.53
2023-04-09T15:24:55.724Z,20.73
2023-04-09T15:27:22.316Z,21.21
2023-04-09T15:29:48.951Z,22.02
2023-04-09T15:32:15.529Z,20.88
2023-04-09T15:34:42.128Z,20.55
2023-04-09T15:37:08.664Z,20.61
2023-04-09T15:39:35.409Z,20.48
2023-04-09T15:42:02.074Z,20.62
2023-04-09T15:44:28.885Z,20.66
2023-04-09T15:46:56.199Z,20.54
2023-04-09T15:49:23.333Z,20.86
2023-04-09T15:51:49.908Z,20.49
2023-04-09T15:54:16.654Z,21.07
2023-04-09T15:56:43.253Z,21.11
2023-04-09T15:59:10.074Z,20.67
2023-04-09T16:01:36.979Z,20.51
2023-04-09T16:04:04.783Z,20.56
2023-04-09T16:06:31.937Z,20.62
2023-04-09T16:08:58.673Z,20.31
2023-04-09T16:11:26.044Z,20.26
2023-04-09T16:13:52.779Z,20.40
2023-04-09T16:16:19.669Z,20.54
2023-04-09T16:18:46.311Z,20.59
2023-04-09T16:21:13.080Z,20.20
2023-04-09T16:23:39.940Z,20.94
2023-04-09T16:26:07.016Z,20.77
2023-04-09T16:28:33.754Z,21.16
2023-04-09T16:31:00.455Z,21.03
2023-04-09T16:33:27.089Z,20.98
2023-04-09T16:35:53.666Z,20.86
2023-04-09T16:38:20.308Z,20.71
2023-04-09T16:40:46.967Z,21.22
2023-04-09T16:43:13.500Z,22.00
2023-04-09T16:48:24.670Z,23.49
2023-04-09T16:50:51.217Z,24.12
2023-04-09T16:53:17.968Z,25.53
2023-04-09T16:55:44.913Z,26.04
2023-04-09T16:58:11.521Z,26.53
2023-04-09T17:00:40.021Z,27.24
2023-04-09T17:03:06.897Z,27.64
2023-04-09T17:05:33.835Z,28.30
2023-04-09T17:08:01.167Z,28.71
2023-04-09T17:10:27.986Z,28.62
2023-04-09T17:12:54.811Z,29.83
2023-04-09T17:15:22.682Z,30.35
2023-04-09T17:17:51.341Z,30.51
2023-04-09T17:20:18.085Z,30.96
2023-04-09T17:22:44.677Z,31.72
2023-04-09T17:25:11.498Z,31.91
2023-04-09T17:27:38.028Z,31.48
2023-04-09T17:30:05.163Z,32.39
2023-04-09T17:32:31.914Z,32.00
2023-04-09T17:34:59.659Z,32.85
2023-04-09T17:37:28.689Z,32.73
2023-04-09T17:39:55.508Z,33.72
2023-04-09T17:42:23.341Z,34.71
2023-04-09T17:44:49.873Z,34.76
2023-04-09T17:47:17.041Z,34.51
2023-04-09T17:49:43.793Z,35.35
2023-04-09T17:52:10.354Z,35.67
2023-04-09T17:54:38.103Z,35.90
2023-04-09T17:57:07.235Z,37.15
2023-04-09T17:59:37.020Z,37.55
2023-04-09T18:02:03.823Z,38.09
2023-04-09T18:04:31.642Z,37.55
2023-04-09T18:06:58.439Z,38.75
2023-04-09T18:09:25.022Z,39.16
2023-04-09T18:11:56.259Z,39.40
2023-04-09T18:14:23.020Z,40.26
2023-04-09T18:16:49.795Z,40.73
2023-04-09T18:19:16.593Z,41.40
2023-04-09T18:21:43.152Z,41.66
2023-04-09T18:24:09.702Z,42.11
2023-04-09T18:26:36.704Z,43.01
2023-04-09T18:29:03.372Z,43.07
2023-04-09T18:31:29.975Z,43.86
2023-04-09T18:33:56.573Z,44.29
2023-04-09T18:36:23.436Z,44.96
2023-04-09T18:38:49.997Z,45.00
2023-04-09T18:41:26.607Z,45.46
2023-04-09T18:43:53.938Z,45.55
2023-04-09T18:46:20.524Z,45.20
2023-04-09T18:48:47.148Z,44.75
2023-04-09T18:51:14.552Z,45.61
2023-04-09T18:53:42.053Z,46.08
2023-04-09T18:56:09.129Z,46.28
2023-04-09T18:58:36.351Z,46.36
2023-04-09T19:01:11.209Z,47.01
2023-04-09T19:03:38.629Z,47.45
2023-04-09T19:06:19.685Z,46.90
2023-04-09T19:08:47.915Z,47.34
2023-04-09T19:11:15.218Z,47.45
2023-04-09T19:13:41.848Z,47.50
2023-04-09T19:16:12.361Z,48.06
2023-04-09T19:18:38.951Z,48.62
2023-04-09T19:21:07.487Z,49.12
2023-04-09T19:23:34.597Z,49.56
2023-04-09T19:26:02.328Z,49.33
2023-04-09T19:28:29.108Z,49.43
2023-04-09T19:30:55.738Z,50.35
2023-04-09T19:33:24.312Z,50.11
2023-04-09T19:35:51.674Z,50.13
2023-04-09T19:38:19.034Z,50.65
2023-04-09T19:40:46.437Z,50.69
2023-04-09T19:43:13.841Z,51.05
2023-04-09T19:45:42.452Z,50.98
2023-04-09T19:48:09.187Z,51.29
2023-04-09T19:50:46.547Z,51.34
2023-04-09T19:53:13.170Z,52.04
2023-04-09T19:55:39.743Z,52.56
2023-04-09T19:58:06.928Z,52.29
2023-04-09T20:00:34.105Z,52.67
2023-04-09T20:03:01.186Z,52.67
2023-04-09T20:05:27.845Z,52.76
2023-04-09T20:07:54.808Z,53.26
2023-04-09T20:10:21.566Z,53.28
2023-04-09T20:12:49.672Z,53.02
2023-04-09T20:15:19.938Z,53.77
2023-04-09T20:17:48.409Z,53.65
2023-04-09T20:20:17.917Z,53.72
2023-04-09T20:22:47.507Z,54.31
2023-04-09T20:25:14.201Z,53.57
2023-04-09T20:27:41.090Z,54.10
2023-04-09T20:30:08.302Z,54.25
2023-04-09T20:32:36.928Z,54.05
2023-04-09T20:35:04.705Z,53.57
2023-04-09T20:37:31.269Z,53.66
2023-04-09T20:39:59.452Z,54.22
2023-04-09T20:42:26.258Z,53.93
2023-04-09T20:44:53.222Z,54.23
2023-04-09T20:47:21.107Z,54.25
2023-04-09T20:49:49.028Z,54.31
2023-04-09T20:52:15.563Z,53.82
2023-04-09T20:54:43.061Z,54.24
2023-04-09T20:57:11.061Z,54.62
2023-04-09T20:59:39.429Z,54.43
2023-04-09T21:02:06.122Z,54.96
2023-04-09T21:04:32.931Z,55.10
2023-04-09T21:06:59.478Z,55.12
2023-04-09T21:09:26.195Z,55.17
2023-04-09T21:11:52.739Z,55.29
2023-04-09T21:14:19.264Z,55.43
2023-04-09T21:16:45.991Z,55.61
2023-04-09T21:19:12.537Z,55.52
2023-04-09T21:21:39.114Z,55.43
2023-04-09T21:24:05.704Z,55.49
2023-04-09T21:26:48.691Z,55.35
2023-04-09T21:29:17.250Z,55.71
2023-04-09T21:31:43.851Z,55.91
2023-04-09T21:34:10.411Z,55.78
2023-04-09T21:36:39.260Z,55.89
2023-04-09T21:39:05.963Z,55.85
2023-04-09T21:41:32.539Z,56.47
2023-04-09T21:44:03.465Z,56.74
2023-04-09T21:46:30.072Z,56.76
2023-04-09T21:48:56.842Z,56.63
2023-04-09T21:51:23.421Z,56.83
2023-04-09T21:53:50.183Z,57.65
2023-04-09T21:56:16.722Z,57.32
2023-04-09T21:58:43.340Z,57.36
2023-04-09T22:01:22.437Z,57.54
2023-04-09T22:03:54.935Z,57.66
2023-04-09T22:06:21.478Z,57.56
2023-04-09T22:08:55.345Z,57.63
2023-04-09T22:11:28.386Z,57.59
2023-04-09T22:13:56.785Z,58.24
2023-04-09T22:16:24.078Z,58.07
2023-04-09T22:18:51.528Z,57.76
2023-04-09T22:21:18.432Z,58.00
2023-04-09T22:23:45.411Z,58.07
2023-04-09T22:26:11.988Z,58.10
2023-04-09T22:28:38.653Z,58.75
2023-04-09T22:31:05.955Z,58.30
2023-04-09T22:33:32.860Z,58.89
2023-04-09T22:35:59.697Z,58.74
2023-04-09T22:38:26.544Z,58.54
2023-04-09T22:40:53.224Z,58.69
2023-04-09T22:43:19.830Z,59.19
2023-04-09T22:45:54.302Z,58.98
2023-04-09T22:48:22.043Z,59.27
2023-04-09T22:50:49.479Z,59.03
2023-04-09T22:53:19.405Z,59.32
2023-04-09T22:55:54.509Z,59.57
2023-04-09T22:58:21.277Z,59.65
2023-04-09T23:00:48.238Z,59.88
2023-04-09T23:03:15.103Z,60.19
2023-04-09T23:05:42.238Z,60.01
2023-04-09T23:08:09.214Z,60.12
2023-04-09T23:10:36.161Z,60.28
2023-04-09T23:13:02.855Z,60.09
2023-04-09T23:15:29.540Z,60.39
2023-04-09T23:17:56.292Z,60.33
2023-04-09T23:20:23.358Z,60.79
2023-04-09T23:22:50.424Z,60.49
2023-04-09T23:25:17.378Z,60.61
2023-04-09T23:27:44.387Z,60.67
2023-04-09T23:30:11.670Z,60.45
2023-04-09T23:32:38.294Z,60.82
2023-04-09T23:35:05.610Z,60.45
2023-04-09T23:37:32.177Z,60.57
2023-04-09T23:39:58.731Z,60.79
2023-04-09T23:42:26.870Z,61.00
2023-04-09T23:44:53.371Z,61.09
2023-04-09T23:47:19.875Z,61.21
2023-04-09T23:49:46.808Z,61.50
2023-04-09T23:52:13.362Z,61.75
2023-04-09T23:54:48.984Z,61.34
2023-04-09T23:57:15.531Z,61.49
2023-04-09T23:59:42.047Z,62.13
